Etusivu
METAR-TAF:

METAR-TAF

Lentoasemat :

Golden, Brittiläinen Kolumbia, Kanada

Leveyspiiri: 51-18N, Pituuspiiri: 116-59W, korkeus merenpinnasta: 785 m

Tämänhetkinen sää

Tämä raportti tehtiin 10 minuuttia sitten, kello 13.00 UTC
tyyntä
Lämpötila 0°C
Kosteus 100%
Ilmanpaine 1006 hPa
Näkyvyys: 32.2 km
Muutamia pilviä 1800 ft:n korkeudessa
Hajanaisia pilviä 3500 ft:n korkeudessa
Hajonneita pilviä 7900 ft:n korkeudessa
(heikkoa) jäätävää, sadetta

METAR: CYGE 301300Z 00000KT 20SM -FZRA FEW018 SCT035 BKN079 M00/M00 A2972 RMK SC1SC2AC2 VIS E 10 SLP092

Aika: 07:10 (13:10 UTC)


TAF: puuttuu

Säähavainnot ja -ennusteet yli 4000 lentoasemalta (METAR- ja TAF-raportit).

Käytössä olevat sääasemat on merkitty karttaan keltaisilla ja punaisilla pisteillä.

Aseta hiiri pisteen päälle nähdäksesi sääaseman nimen.

Klikkaa sitten nähdäksesi säähavainnot ja -ennusteet.

Kartan vaihtaminen: klikkaa mustalla rastilla varustettuja vihreitä pisteitä, niin voit zoomata sisään; viivalla varustettua vihreää pistettä, niin voit zoomata ulos tai vihreitä nuolia, niin pääset viereisille kartoille.


METAR-TAF: